Terminal Aerodrome Forecast
Issued by NWS

Home | Current Version | Previous Version | Text Only | Print | Product List | Glossary On
Versions: 1 2 3 4 5 6 7 8 9 10 11 12 13 14 15 16 17 18 19 20 21 22 23 24 25 26 27
000
FTAK31 PAFA 102009 AAA
TAFAOR
TAF AMD
PAOR 102009Z 1020/1118 VRB03KT 2SM -SN BKN007 BKN015 OVC040
     FM102300 VRB03KT 4SM -SN BR BKN015 OVC040
     FM110400 VRB03KT P6SM VCSH FEW015 BKN040 BKN100=

USA.gov is the U.S. government's official web portal to all federal, state and local government web resources and services.